Time;durP1;ratioP1;P1;durP2;ratioP2;P2;SDS_P1;SDS_P2;PMS_P1;PMS_P2;Temp;Humidity;BMP_temperature;BMP_pressure;BME280_temperature;BME280_humidity;BME280_pressure;Samples;Min_cycle;Max_cycle;Signal;HPM_P1;HPM_P2
2022/07/19 00:02:23;;;;;;;5.55;2.00;;;;;;;18.41;72.00;96739.19;5041189;28;20208;-71
2022/07/19 00:04:49;;;;;;;5.95;2.33;;;;;;;18.39;71.45;96744.75;5040575;28;20205;-70
2022/07/19 00:07:16;;;;;;;3.92;2.20;;;;;;;18.40;73.43;96746.38;5041472;28;20212;-70
2022/07/19 00:09:42;;;;;;;3.22;2.20;;;;;;;18.45;71.87;96756.41;5041204;28;20212;-70
2022/07/19 00:12:10;;;;;;;4.32;2.13;;;;;;;18.33;71.95;96747.47;5037021;28;20217;-71
2022/07/19 00:14:37;;;;;;;3.17;2.40;;;;;;;18.39;72.32;96744.75;5040556;28;20202;-71
2022/07/19 00:17:05;;;;;;;3.10;2.10;;;;;;;18.40;71.73;96740.22;5040393;28;20209;-71
2022/07/19 00:19:31;;;;;;;3.72;2.25;;;;;;;17.96;72.66;96752.66;5040962;28;20208;-70
2022/07/19 00:21:57;;;;;;;4.38;2.40;;;;;;;18.09;73.88;96752.66;5040899;28;20231;-70
2022/07/19 00:24:24;;;;;;;4.28;2.33;;;;;;;18.18;73.20;96752.22;5040136;28;20197;-70
2022/07/19 00:26:50;;;;;;;4.20;1.90;;;;;;;18.26;72.06;96745.84;5040679;28;20201;-70
2022/07/19 00:29:17;;;;;;;4.13;2.10;;;;;;;18.05;72.19;96746.91;5039928;28;20204;-71
2022/07/19 00:31:43;;;;;;;2.95;2.03;;;;;;;18.17;72.40;96737.25;5040480;28;20217;-71
2022/07/19 00:34:11;;;;;;;3.40;2.10;;;;;;;18.16;73.00;96737.44;5039771;28;20212;-70
2022/07/19 00:36:38;;;;;;;4.40;2.30;;;;;;;17.87;72.89;96738.78;5040252;28;20201;-71
2022/07/19 00:39:04;;;;;;;4.00;2.22;;;;;;;17.89;73.09;96739.38;5039480;28;20207;-71
2022/07/19 00:41:31;;;;;;;3.58;2.30;;;;;;;17.98;73.03;96742.63;5040103;28;20232;-71
2022/07/19 00:43:57;;;;;;;3.13;2.05;;;;;;;18.06;72.83;96739.72;5039453;28;20210;-71
2022/07/19 00:46:24;;;;;;;2.63;1.98;;;;;;;17.88;72.48;96742.25;5040232;28;20201;-71
2022/07/19 00:48:51;;;;;;;6.55;2.03;;;;;;;18.09;71.16;96740.13;5039809;28;21535;-70
2022/07/19 00:51:19;;;;;;;2.70;2.05;;;;;;;18.02;72.25;96743.84;5040200;28;20217;-70
2022/07/19 00:53:46;;;;;;;4.68;2.13;;;;;;;17.99;71.78;96744.28;5039653;28;20216;-70
2022/07/19 00:56:14;;;;;;;4.30;2.67;;;;;;;18.20;71.65;96739.50;5040005;28;20283;-70
2022/07/19 00:58:41;;;;;;;3.20;2.40;;;;;;;18.32;71.46;96744.97;5040085;28;20212;-70
2022/07/19 01:01:09;;;;;;;2.60;2.00;;;;;;;17.84;72.59;96749.84;5039681;28;20221;-70
2022/07/19 01:03:38;;;;;;;5.15;1.80;;;;;;;17.85;74.07;96753.34;5039584;28;20198;-70
2022/07/19 01:06:04;;;;;;;5.80;2.00;;;;;;;17.75;73.42;96752.94;5038911;28;20201;-70
2022/07/19 01:08:32;;;;;;;3.95;2.38;;;;;;;17.70;75.27;96752.75;5039714;28;20197;-70
2022/07/19 01:10:59;;;;;;;3.00;2.05;;;;;;;17.61;74.63;96747.84;5037299;28;20225;-70
2022/07/19 01:13:26;;;;;;;2.60;1.98;;;;;;;17.54;74.98;96747.88;5038750;28;20208;-70
2022/07/19 01:15:52;;;;;;;3.45;2.20;;;;;;;17.44;75.03;96747.47;5039427;28;20255;-70
2022/07/19 01:18:19;;;;;;;6.25;2.33;;;;;;;17.49;74.76;96739.69;5040187;28;20201;-70
2022/07/19 01:20:45;;;;;;;4.20;2.30;;;;;;;17.44;74.31;96742.13;5039598;28;20229;-70
2022/07/19 01:23:13;;;;;;;5.45;2.45;;;;;;;17.69;74.04;96736.97;5039195;28;20581;-70
2022/07/19 01:25:40;;;;;;;6.03;2.58;;;;;;;17.40;74.42;96730.25;5039092;28;20201;-70
2022/07/19 01:28:08;;;;;;;4.32;2.65;;;;;;;17.32;75.00;96742.97;5039687;28;20193;-70
2022/07/19 01:30:35;;;;;;;5.28;2.70;;;;;;;17.31;74.89;96738.66;5039009;28;21097;-70
2022/07/19 01:33:03;;;;;;;2.90;2.30;;;;;;;17.46;75.77;96733.94;5039540;28;20616;-70
2022/07/19 01:35:29;;;;;;;4.45;2.40;;;;;;;17.45;75.56;96738.47;5039415;28;20212;-70
2022/07/19 01:37:56;;;;;;;5.00;2.72;;;;;;;17.28;75.42;96737.22;5039210;28;20221;-70
2022/07/19 01:40:26;;;;;;;3.20;2.70;;;;;;;17.49;74.94;96731.69;5039389;28;20224;-70
2022/07/19 01:42:53;;;;;;;4.10;2.50;;;;;;;17.60;74.74;96732.88;5038726;28;20201;-70
2022/07/19 01:45:21;;;;;;;5.18;2.70;;;;;;;17.71;73.75;96736.53;5039825;28;20371;-70
2022/07/19 01:47:48;;;;;;;3.67;2.53;;;;;;;17.91;74.74;96731.97;5039477;28;20241;-70
2022/07/19 01:50:16;;;;;;;5.28;2.78;;;;;;;18.00;73.88;96732.59;5038689;28;20574;-70
2022/07/19 01:52:42;;;;;;;3.40;2.42;;;;;;;17.77;74.71;96737.56;5039088;28;20205;-70
2022/07/19 01:55:09;;;;;;;3.42;2.25;;;;;;;17.64;73.42;96737.56;5039136;28;20205;-70
2022/07/19 01:57:37;;;;;;;5.75;2.42;;;;;;;17.44;74.09;96733.34;5039600;28;20670;-70
2022/07/19 02:00:05;;;;;;;4.75;2.58;;;;;;;17.55;73.61;96728.16;5039118;28;20996;-70
2022/07/19 02:02:31;;;;;;;6.50;2.47;;;;;;;17.54;74.55;96729.22;5038807;28;20229;-71
2022/07/19 02:04:58;;;;;;;2.63;2.28;;;;;;;17.62;74.41;96722.84;5038990;28;20744;-70
2022/07/19 02:07:24;;;;;;;5.45;2.90;;;;;;;17.54;74.22;96721.22;5038554;28;20205;-70
2022/07/19 02:09:51;;;;;;;6.60;1.98;;;;;;;17.41;74.49;96721.25;5038528;28;20205;-71
2022/07/19 02:12:17;;;;;;;4.25;2.80;;;;;;;17.43;75.47;96727.16;5036278;28;20225;-70
2022/07/19 02:14:45;;;;;;;5.75;2.40;;;;;;;17.47;75.59;96714.25;5038957;28;20232;-70
2022/07/19 02:17:12;;;;;;;5.90;2.63;;;;;;;17.22;75.70;96705.22;5039493;28;20208;-70
2022/07/19 02:19:38;;;;;;;3.45;2.90;;;;;;;17.18;76.12;96712.84;5039126;28;20380;-70
2022/07/19 02:22:04;;;;;;;7.10;3.53;;;;;;;17.23;76.59;96712.19;5038535;28;20224;-70
2022/07/19 02:24:31;;;;;;;4.82;2.47;;;;;;;17.25;75.64;96711.00;5038282;28;20205;-70
2022/07/19 02:26:57;;;;;;;4.75;2.30;;;;;;;17.28;75.46;96705.25;5038968;28;20196;-70
2022/07/19 02:29:24;;;;;;;6.07;2.83;;;;;;;17.09;76.99;96700.75;5042610;28;20197;-70
2022/07/19 02:31:52;;;;;;;3.38;2.47;;;;;;;17.11;76.10;96697.88;5043043;28;20763;-70
2022/07/19 02:34:18;;;;;;;5.60;3.28;;;;;;;16.98;76.62;96703.22;5042332;28;20580;-70
2022/07/19 02:36:45;;;;;;;6.50;3.13;;;;;;;16.68;77.42;96699.28;5042730;28;20204;-70
2022/07/19 02:39:11;;;;;;;7.95;2.80;;;;;;;16.72;78.51;96700.50;5039206;28;20574;-70
2022/07/19 02:41:38;;;;;;;9.77;3.35;;;;;;;16.62;77.85;96702.78;5042207;28;20287;-70
2022/07/19 02:44:04;;;;;;;8.93;2.63;;;;;;;16.58;78.94;96706.03;5042117;28;20201;-70
2022/07/19 02:46:31;;;;;;;10.57;3.10;;;;;;;16.49;77.92;96707.25;5042542;28;20201;-70
2022/07/19 02:48:59;;;;;;;6.78;2.85;;;;;;;16.80;77.58;96705.66;5042417;28;20287;-70
2022/07/19 02:51:25;;;;;;;5.05;2.75;;;;;;;16.57;77.14;96707.06;5042534;28;20221;-70
2022/07/19 02:53:52;;;;;;;8.55;2.67;;;;;;;16.45;78.32;96706.00;5041576;28;20201;-70
2022/07/19 02:56:19;;;;;;;6.45;2.90;;;;;;;16.38;78.59;96704.34;5042307;28;20208;-70
2022/07/19 02:58:45;;;;;;;4.43;2.83;;;;;;;16.44;78.87;96711.53;5042799;28;20227;-70
2022/07/19 03:01:11;;;;;;;3.67;2.78;;;;;;;16.49;78.00;96707.25;5042418;28;20505;-70
2022/07/19 03:03:47;;;;;;;4.63;3.08;;;;;;;16.51;79.71;96705.22;5041440;28;20666;-70
2022/07/19 03:06:17;;;;;;;8.82;3.47;;;;;;;16.82;78.39;96702.78;5042623;28;20213;-70
2022/07/19 03:08:44;;;;;;;4.57;3.05;;;;;;;16.55;78.30;96711.78;5041834;28;20681;-70
2022/07/19 03:11:11;;;;;;;4.28;2.72;;;;;;;16.60;78.78;96698.69;5039457;28;20225;-70
2022/07/19 03:13:37;;;;;;;8.20;3.33;;;;;;;16.53;79.87;96693.34;5041595;28;20201;-70
2022/07/19 03:16:04;;;;;;;4.70;2.80;;;;;;;16.48;79.23;96694.16;5043150;28;20201;-70
2022/07/19 03:18:31;;;;;;;6.97;2.90;;;;;;;16.46;79.40;96694.34;5040937;28;20197;-70
2022/07/19 03:20:58;;;;;;;8.70;3.28;;;;;;;16.36;79.26;96701.91;5040965;28;20233;-70
2022/07/19 03:23:27;;;;;;;6.65;3.25;;;;;;;16.50;80.81;96698.25;5041029;28;20228;-70
2022/07/19 03:25:54;;;;;;;6.10;3.20;;;;;;;16.45;79.43;96700.69;5040346;28;20197;-70
2022/07/19 03:28:20;;;;;;;4.43;3.00;;;;;;;16.52;79.45;96697.03;5040248;28;21171;-70
2022/07/19 03:30:46;;;;;;;6.18;2.72;;;;;;;16.36;79.15;96698.44;5040510;28;20225;-70
2022/07/19 03:33:15;;;;;;;4.63;2.88;;;;;;;16.49;79.75;96707.25;5039564;28;20201;-71
2022/07/19 03:35:42;;;;;;;7.45;3.28;;;;;;;16.51;78.76;96700.69;5039704;28;20735;-70
2022/07/19 03:38:09;;;;;;;8.35;2.83;;;;;;;16.36;78.77;96701.91;5040291;28;20201;-70
2022/07/19 03:40:37;;;;;;;3.47;2.63;;;;;;;16.21;79.57;96711.84;5040106;28;20228;-70
2022/07/19 03:43:03;;;;;;;4.90;2.92;;;;;;;16.05;81.17;96698.06;5039342;28;20247;-70
2022/07/19 03:45:30;;;;;;;5.60;2.90;;;;;;;16.08;80.93;96706.50;5040337;28;20201;-70
2022/07/19 03:47:56;;;;;;;5.80;2.72;;;;;;;16.23;81.18;96709.81;5040408;28;20213;-70
2022/07/19 03:50:23;;;;;;;8.45;3.63;;;;;;;16.23;80.74;96703.66;5039945;28;20217;-70
2022/07/19 03:52:49;;;;;;;10.23;3.53;;;;;;;16.28;80.57;96704.75;5039497;28;20225;-70
2022/07/19 03:55:15;;;;;;;9.68;2.95;;;;;;;16.66;85.50;96703.16;5039472;28;20209;-70
2022/07/19 03:57:43;;;;;;;7.03;3.20;;;;;;;16.73;77.16;96698.69;5038982;28;20693;-71
2022/07/19 04:00:10;;;;;;;6.50;2.90;;;;;;;16.48;77.70;96699.47;5038582;28;20666;-70
2022/07/19 04:02:36;;;;;;;11.23;3.35;;;;;;;16.40;78.87;96715.63;5037685;28;20197;-70
2022/07/19 04:05:03;;;;;;;5.88;3.88;;;;;;;16.50;78.35;96703.56;5038439;28;20213;-71
2022/07/19 04:07:30;;;;;;;8.90;3.13;;;;;;;16.56;77.11;96695.59;5038948;28;20198;-70
2022/07/19 04:09:56;;;;;;;8.82;2.88;;;;;;;16.40;77.43;96695.16;5040089;28;20212;-68
2022/07/19 04:12:23;;;;;;;11.10;3.50;;;;;;;16.31;78.41;96699.03;5039746;28;20454;-68
2022/07/19 04:14:50;;;;;;;6.03;3.47;;;;;;;16.28;79.67;96694.13;5040741;28;20205;-68
2022/07/19 04:17:17;;;;;;;8.68;3.30;;;;;;;16.34;79.72;96698.59;5041211;28;20582;-68
2022/07/19 04:19:43;;;;;;;6.67;3.17;;;;;;;16.23;80.66;96712.47;5003907;28;1048210;-68
2022/07/19 04:22:10;;;;;;;5.35;3.40;;;;;;;16.24;80.71;96700.00;5041071;28;20220;-68
2022/07/19 04:24:36;;;;;;;11.27;4.30;;;;;;;16.29;80.10;96700.25;5041439;28;20284;-68
2022/07/19 04:27:03;;;;;;;5.38;3.20;;;;;;;16.40;79.97;96700.47;5041094;28;20205;-68
2022/07/19 04:29:30;;;;;;;5.72;3.08;;;;;;;16.64;79.56;96699.91;5041062;28;20705;-68
2022/07/19 04:31:57;;;;;;;12.48;3.15;;;;;;;16.88;79.31;96692.16;5040354;28;20597;-68
2022/07/19 04:34:24;;;;;;;5.70;3.10;;;;;;;16.90;79.01;96706.06;5040033;28;20471;-68
2022/07/19 04:36:50;;;;;;;7.03;3.38;;;;;;;17.00;79.42;96695.00;5039899;28;20438;-68
2022/07/19 04:39:17;;;;;;;6.75;3.20;;;;;;;17.13;79.31;96695.81;5039743;28;20209;-68
2022/07/19 04:41:43;;;;;;;6.90;3.20;;;;;;;17.14;79.60;96700.97;5040350;28;20646;-68
2022/07/19 04:44:09;;;;;;;7.70;3.47;;;;;;;16.97;80.02;96703.41;5040161;28;20661;-68
2022/07/19 04:46:36;;;;;;;5.72;3.15;;;;;;;17.17;79.50;96703.19;5040111;28;20460;-68
2022/07/19 04:49:04;;;;;;;12.45;3.90;;;;;;;17.39;78.29;96704.63;5040070;28;20205;-69
2022/07/19 04:51:30;;;;;;;4.30;3.22;;;;;;;17.58;77.57;96710.94;5038539;28;20224;-68
2022/07/19 04:53:57;;;;;;;7.57;3.72;;;;;;;17.68;77.97;96708.66;5039385;28;20471;-68
2022/07/19 04:56:23;;;;;;;7.50;3.78;;;;;;;17.85;77.74;96710.69;5040597;28;21210;-69
2022/07/19 04:58:50;;;;;;;10.38;3.60;;;;;;;17.93;77.86;96705.91;5040823;28;20292;-69
2022/07/19 05:01:16;;;;;;;7.43;3.58;;;;;;;18.13;77.59;96705.84;5040158;28;20232;-69
2022/07/19 05:03:42;;;;;;;6.55;3.90;;;;;;;18.16;78.24;96705.41;5040299;28;20208;-69
2022/07/19 05:06:10;;;;;;;7.55;3.33;;;;;;;18.39;78.61;96699.38;5040655;28;20209;-69
2022/07/19 05:08:37;;;;;;;10.75;3.75;;;;;;;18.42;77.63;96701.63;5041371;28;20208;-69
2022/07/19 05:11:03;;;;;;;8.50;3.90;;;;;;;18.56;76.76;96697.84;5038314;28;20214;-69
2022/07/19 05:13:30;;;;;;;5.68;3.13;;;;;;;18.84;74.81;96697.44;5044910;28;20239;-68
2022/07/19 05:15:57;;;;;;;8.07;3.30;;;;;;;19.09;74.29;96691.94;5045704;28;20197;-68
2022/07/19 05:18:23;;;;;;;12.02;3.58;;;;;;;19.19;73.56;96686.09;5044890;28;20201;-68
2022/07/19 05:20:50;;;;;;;6.70;3.70;;;;;;;19.20;71.90;96687.72;5045113;28;20252;-68
2022/07/19 05:23:18;;;;;;;5.57;3.25;;;;;;;19.41;71.68;96687.31;5045881;28;20288;-68
2022/07/19 05:25:44;;;;;;;5.13;3.25;;;;;;;19.51;71.92;96690.31;5045696;28;20689;-68
2022/07/19 05:28:11;;;;;;;6.28;3.40;;;;;;;19.63;71.85;96689.38;5045319;28;20212;-68
2022/07/19 05:30:37;;;;;;;5.32;3.58;;;;;;;19.70;71.51;96688.25;5045580;28;20713;-68
2022/07/19 05:33:04;;;;;;;8.90;3.75;;;;;;;19.74;72.22;96686.78;5044967;28;20217;-68
2022/07/19 05:35:31;;;;;;;5.07;3.47;;;;;;;19.71;73.38;96695.22;5043579;28;20273;-68
2022/07/19 05:37:57;;;;;;;7.13;3.45;;;;;;;19.70;74.33;96696.28;5045581;28;20205;-68
2022/07/19 05:40:25;;;;;;;6.35;3.13;;;;;;;19.74;71.84;96705.50;5045440;28;20224;-68
2022/07/19 05:42:52;;;;;;;5.72;3.28;;;;;;;19.90;71.41;96696.88;5045676;28;20205;-69
2022/07/19 05:45:18;;;;;;;10.43;3.22;;;;;;;20.02;71.68;96703.16;5045835;28;20228;-69
2022/07/19 05:47:45;;;;;;;6.38;3.20;;;;;;;20.12;71.78;96692.72;5046093;28;20240;-68
2022/07/19 05:50:11;;;;;;;7.97;3.50;;;;;;;20.26;70.99;96694.19;5044060;28;20201;-68
2022/07/19 05:52:38;;;;;;;6.30;3.17;;;;;;;20.34;70.27;96697.38;5044606;28;20227;-68
2022/07/19 05:55:06;;;;;;;5.13;3.22;;;;;;;20.61;69.74;96692.47;5043980;28;20280;-68
2022/07/19 05:57:34;;;;;;;5.22;2.75;;;;;;;20.88;67.83;96690.00;5043509;28;20248;-68
2022/07/19 06:00:00;;;;;;;5.55;2.92;;;;;;;20.96;68.42;96680.84;5042648;28;20205;-68
2022/07/19 06:02:27;;;;;;;4.90;2.67;;;;;;;21.11;67.75;96686.56;5041795;28;20672;-68
2022/07/19 06:04:53;;;;;;;7.03;2.65;;;;;;;21.41;66.33;96689.97;5042637;28;20201;-69
2022/07/19 06:07:20;;;;;;;3.90;2.58;;;;;;;21.54;66.42;96694.09;5042808;28;20201;-69
2022/07/19 06:09:46;;;;;;;5.30;3.15;;;;;;;21.68;65.73;96694.69;5042246;28;20211;-69
2022/07/19 06:12:13;;;;;;;3.80;2.58;;;;;;;21.86;64.69;96699.91;5042127;28;20225;-69
2022/07/19 06:14:41;;;;;;;5.30;3.00;;;;;;;22.01;63.41;96697.53;5037820;28;20587;-69
2022/07/19 06:17:07;;;;;;;6.57;2.70;;;;;;;21.97;63.13;96699.06;5036934;28;20681;-69
2022/07/19 06:19:34;;;;;;;7.65;3.10;;;;;;;22.03;62.73;96704.28;5036430;28;20206;-69
2022/07/19 06:22:00;;;;;;;8.40;2.85;;;;;;;22.00;62.53;96704.78;5036098;28;20225;-69
2022/07/19 06:24:27;;;;;;;5.47;2.65;;;;;;;22.11;61.52;96709.31;5034555;28;20673;-69
2022/07/19 06:26:54;;;;;;;4.68;2.60;;;;;;;22.18;62.70;96707.31;5035824;28;20219;-70
2022/07/19 06:29:20;;;;;;;8.90;3.58;;;;;;;22.27;62.30;96703.22;5035587;28;20205;-70
2022/07/19 06:31:48;;;;;;;4.25;2.63;;;;;;;22.52;60.47;96707.22;5035709;28;20677;-69
2022/07/19 06:34:15;;;;;;;6.75;2.83;;;;;;;22.48;61.19;96700.72;5035522;28;20228;-69
2022/07/19 06:36:41;;;;;;;5.45;2.70;;;;;;;22.56;59.32;96702.19;5036099;28;20205;-69
2022/07/19 06:39:08;;;;;;;5.25;2.67;;;;;;;22.60;60.38;96704.16;5036544;28;20212;-69
2022/07/19 06:41:34;;;;;;;10.57;2.95;;;;;;;22.73;59.26;96698.47;5035499;28;20227;-69
2022/07/19 06:44:01;;;;;;;4.95;2.75;;;;;;;22.88;59.21;96693.38;5035070;28;20678;-70
2022/07/19 06:46:27;;;;;;;5.15;2.72;;;;;;;22.99;59.59;96697.94;5035698;28;20208;-69
2022/07/19 06:48:55;;;;;;;3.40;2.30;;;;;;;23.20;57.52;96692.63;5036156;28;21127;-69
2022/07/19 06:51:22;;;;;;;4.88;2.40;;;;;;;23.30;57.09;96694.69;5035803;28;20240;-70
2022/07/19 06:53:49;;;;;;;4.28;2.50;;;;;;;23.48;57.32;96687.97;5035132;28;20229;-69
2022/07/19 06:56:15;;;;;;;3.92;2.80;;;;;;;23.53;58.14;96696.13;5036333;28;20201;-70
2022/07/19 06:58:42;;;;;;;5.13;2.70;;;;;;;23.63;56.24;96701.66;5036126;28;20216;-71
2022/07/19 07:01:09;;;;;;;7.22;2.70;;;;;;;23.84;55.10;96702.81;5036366;28;20217;-70
2022/07/19 07:03:36;;;;;;;2.65;2.25;;;;;;;23.98;53.76;96702.19;5035744;28;20212;-70
2022/07/19 07:06:05;;;;;;;5.13;2.70;;;;;;;24.14;53.65;96693.25;5035473;28;20212;-70
2022/07/19 07:08:31;;;;;;;7.18;2.58;;;;;;;23.99;52.39;96693.06;5036086;28;20201;-70
2022/07/19 07:10:58;;;;;;;5.13;2.50;;;;;;;24.21;54.01;96697.41;5036473;28;20232;-70
2022/07/19 07:13:24;;;;;;;10.68;2.67;;;;;;;24.44;54.51;96693.66;5035791;28;20225;-71
2022/07/19 07:15:51;;;;;;;8.20;2.60;;;;;;;24.52;54.43;96695.94;5040190;28;20208;-70
2022/07/19 07:18:17;;;;;;;5.25;2.50;;;;;;;24.62;51.63;96689.56;5039032;28;20662;-69
2022/07/19 07:20:44;;;;;;;8.80;2.60;;;;;;;24.87;51.79;96689.84;5039812;28;20781;-70
2022/07/19 07:23:12;;;;;;;6.72;2.30;;;;;;;25.11;53.52;96693.84;5038196;28;20213;-70
2022/07/19 07:25:38;;;;;;;3.83;2.30;;;;;;;25.09;51.16;96682.53;5039182;28;20216;-71
2022/07/19 07:28:06;;;;;;;5.18;2.53;;;;;;;25.34;50.91;96688.13;5039792;28;20201;-70
2022/07/19 07:30:32;;;;;;;3.30;2.20;;;;;;;25.49;50.75;96682.84;5038796;28;20217;-70
2022/07/19 07:32:59;;;;;;;4.85;2.60;;;;;;;25.47;49.91;96679.59;5038896;28;20221;-71
2022/07/19 07:35:26;;;;;;;3.55;2.28;;;;;;;25.68;51.13;96681.38;5039423;28;20658;-72
2022/07/19 07:37:53;;;;;;;4.60;2.15;;;;;;;25.74;50.06;96675.78;5039294;28;20201;-69
2022/07/19 07:40:21;;;;;;;4.25;2.30;;;;;;;25.90;47.30;96677.47;5039415;28;20311;-70
2022/07/19 07:42:47;;;;;;;2.95;2.17;;;;;;;26.10;49.34;96664.09;5038710;28;20587;-70
2022/07/19 07:45:14;;;;;;;3.95;1.92;;;;;;;26.22;48.25;96670.91;5038499;28;20553;-70
2022/07/19 07:47:41;;;;;;;2.95;2.20;;;;;;;26.25;46.54;96664.97;5038526;28;20205;-70
2022/07/19 07:50:08;;;;;;;6.45;1.95;;;;;;;26.29;46.41;96662.56;5038739;28;20468;-70
2022/07/19 07:52:35;;;;;;;3.03;2.00;;;;;;;26.37;45.34;96657.47;5037741;28;20274;-70
2022/07/19 07:55:02;;;;;;;3.00;1.92;;;;;;;26.52;44.87;96661.03;5037247;28;20205;-70
2022/07/19 07:57:30;;;;;;;6.15;1.90;;;;;;;26.79;44.88;96658.13;5038354;28;20207;-71
2022/07/19 07:59:57;;;;;;;6.35;2.13;;;;;;;26.86;44.39;96654.09;5039138;28;20296;-70
2022/07/19 08:02:23;;;;;;;5.47;2.08;;;;;;;27.09;44.86;96659.03;5038263;28;20216;-70
2022/07/19 08:04:50;;;;;;;2.47;1.88;;;;;;;27.28;44.46;96655.50;5038366;28;20204;-70
2022/07/19 08:07:16;;;;;;;2.13;1.55;;;;;;;27.22;42.33;96651.16;5038254;28;20288;-70
2022/07/19 08:09:43;;;;;;;2.50;1.85;;;;;;;27.35;40.76;96650.63;5038748;28;20201;-69
2022/07/19 08:12:09;;;;;;;2.45;1.67;;;;;;;27.43;40.39;96647.38;5038401;28;20709;-70
2022/07/19 08:14:37;;;;;;;3.80;1.92;;;;;;;27.55;40.12;96650.59;5036430;28;20836;-70
2022/07/19 08:17:04;;;;;;;4.55;1.73;;;;;;;27.65;40.48;96650.63;5038898;28;20205;-70
2022/07/19 08:19:30;;;;;;;4.10;2.00;;;;;;;27.87;42.09;96648.41;5038520;28;20201;-70
2022/07/19 08:21:57;;;;;;;2.97;1.60;;;;;;;27.99;40.69;96643.50;5037709;28;20231;-70
2022/07/19 08:24:23;;;;;;;4.03;2.00;;;;;;;27.97;41.40;96648.41;5037808;28;20193;-70
2022/07/19 08:26:50;;;;;;;2.75;1.90;;;;;;;28.07;39.71;96653.78;5037133;28;20372;-69
2022/07/19 08:29:16;;;;;;;2.58;1.63;;;;;;;28.20;39.87;96645.91;5038728;28;20201;-70
2022/07/19 08:31:44;;;;;;;2.38;1.80;;;;;;;28.09;38.72;96640.75;5038865;28;20646;-71
2022/07/19 08:34:11;;;;;;;2.85;1.90;;;;;;;28.30;39.16;96645.88;5036809;28;20704;-70
2022/07/19 08:36:38;;;;;;;4.15;1.85;;;;;;;28.36;38.45;96637.44;5037619;28;20206;-70
2022/07/19 08:39:04;;;;;;;6.40;1.98;;;;;;;28.61;38.44;96636.47;5038291;28;20217;-70
2022/07/19 08:41:31;;;;;;;4.28;1.67;;;;;;;28.80;38.30;96630.16;5038435;28;20425;-70
2022/07/19 08:44:02;;;;;;;3.15;1.80;;;;;;;28.89;35.95;96623.03;5037577;28;20193;-70
2022/07/19 08:46:28;;;;;;;2.03;1.65;;;;;;;28.83;36.96;96629.59;5037754;28;20292;-70
2022/07/19 08:48:56;;;;;;;5.53;1.75;;;;;;;29.03;36.77;96619.41;5037978;28;20638;-70
2022/07/19 08:51:23;;;;;;;2.83;1.85;;;;;;;28.98;37.08;96626.78;5037686;28;20585;-70
2022/07/19 08:53:50;;;;;;;2.47;1.58;;;;;;;29.17;35.95;96622.28;5036721;28;20595;-70
2022/07/19 08:59:03;;;;;;;3.20;1.60;;;;;;;29.23;35.46;96621.97;5037912;28;20208;-69
2022/07/19 09:01:30;;;;;;;6.40;1.90;;;;;;;29.47;34.95;96622.03;5037266;28;20594;-70
2022/07/19 09:04:05;;;;;;;4.05;1.58;;;;;;;29.59;35.36;96615.97;5037803;28;20197;-70
2022/07/19 09:06:38;;;;;;;3.55;1.63;;;;;;;29.70;35.85;96620.19;5034972;28;20204;-70
2022/07/19 09:09:04;;;;;;;3.17;1.55;;;;;;;29.79;36.06;96618.47;5038112;28;20205;-69
2022/07/19 09:11:35;;;;;;;3.13;1.63;;;;;;;29.94;34.86;96621.06;5038691;28;20227;-69
2022/07/19 09:14:06;;;;;;;2.42;1.40;;;;;;;29.98;34.20;96619.38;5036985;28;20712;-70
2022/07/19 09:16:51;;;;;;;2.38;1.30;;;;;;;29.98;33.08;96624.03;5036114;28;20197;-70
2022/07/19 09:19:20;;;;;;;2.42;1.50;;;;;;;30.07;32.92;96627.72;5037868;28;20207;-70
2022/07/19 09:21:58;;;;;;;2.20;1.67;;;;;;;30.20;32.59;96618.84;5037599;28;20480;-70
2022/07/19 09:24:26;;;;;;;6.25;1.65;;;;;;;30.18;33.40;96621.03;5036338;28;20351;-71
2022/07/19 09:27:01;;;;;;;5.53;1.73;;;;;;;30.48;33.74;96618.78;5038311;28;20255;-71
2022/07/19 09:29:28;;;;;;;4.00;1.70;;;;;;;30.45;33.07;96622.09;5037696;28;20448;-70
2022/07/19 09:31:59;;;;;;;2.38;1.45;;;;;;;30.68;33.74;96621.22;5037382;28;20288;-70
2022/07/19 09:34:31;;;;;;;5.50;1.60;;;;;;;30.66;32.94;96623.44;5037252;28;20396;-70
2022/07/19 09:37:12;;;;;;;2.60;1.20;;;;;;;30.71;31.62;96626.09;5037266;28;20292;-70
2022/07/19 09:39:41;;;;;;;3.65;1.55;;;;;;;30.71;31.75;96626.88;5037746;28;20205;-70
2022/07/19 09:42:08;;;;;;;2.47;1.40;;;;;;;30.51;32.15;96616.31;5037520;28;20396;-70
2022/07/19 09:44:35;;;;;;;3.17;1.45;;;;;;;30.74;32.96;96622.78;5037065;28;20208;-70
2022/07/19 09:47:01;;;;;;;3.50;1.60;;;;;;;30.87;32.59;96615.50;5036884;28;20204;-70
2022/07/19 09:49:29;;;;;;;1.90;1.30;;;;;;;30.96;31.67;96611.03;5037289;28;20209;-70
2022/07/19 09:51:56;;;;;;;2.05;1.50;;;;;;;31.24;31.16;96617.41;5037090;28;20593;-70
2022/07/19 09:54:25;;;;;;;3.72;1.30;;;;;;;31.27;31.39;96614.88;5036796;28;20228;-69
2022/07/19 09:56:53;;;;;;;2.05;1.40;;;;;;;31.36;31.72;96609.56;5036817;28;20197;-70
2022/07/19 09:59:21;;;;;;;3.40;1.52;;;;;;;31.48;30.94;96610.75;5036797;28;20209;-70
2022/07/19 10:01:51;;;;;;;2.50;1.60;;;;;;;31.67;30.16;96608.75;5036898;28;20233;-70
2022/07/19 10:04:20;;;;;;;5.72;1.50;;;;;;;31.80;29.83;96603.34;5036432;28;20591;-71
2022/07/19 10:06:50;;;;;;;2.00;1.60;;;;;;;32.02;30.15;96605.41;5036978;28;20211;-71
2022/07/19 10:09:18;;;;;;;2.55;1.58;;;;;;;32.02;30.73;96599.97;5036860;28;20667;-72
2022/07/19 10:11:45;;;;;;;6.35;1.92;;;;;;;31.95;31.61;96597.63;5037851;28;20587;-70
2022/07/19 10:14:12;;;;;;;5.28;1.73;;;;;;;31.94;30.25;96592.44;5036595;28;20221;-70
2022/07/19 10:16:49;;;;;;;3.88;1.88;;;;;;;32.35;31.21;96589.44;5034860;28;20208;-70
2022/07/19 10:19:19;;;;;;;2.95;1.58;;;;;;;32.38;30.62;96588.00;5037402;28;20212;-71
2022/07/19 10:21:48;;;;;;;2.22;1.83;;;;;;;32.45;30.63;96582.97;5037295;28;20233;-70
2022/07/19 10:24:15;;;;;;;4.93;1.80;;;;;;;32.27;31.10;96579.25;5038357;28;20569;-70
2022/07/19 10:26:44;;;;;;;2.17;1.60;;;;;;;32.38;30.55;96569.75;5037501;28;20213;-70
2022/07/19 10:29:12;;;;;;;3.40;1.80;;;;;;;32.39;30.18;96571.34;5037506;28;20654;-70
2022/07/19 10:31:40;;;;;;;6.85;1.95;;;;;;;32.64;30.25;96559.91;5037758;28;20705;-70
2022/07/19 10:34:08;;;;;;;4.30;1.75;;;;;;;32.74;29.33;96565.13;5036410;28;20662;-70
2022/07/19 10:36:37;;;;;;;5.97;1.90;;;;;;;32.44;28.51;96563.03;5038039;28;20654;-71
2022/07/19 10:39:39;;;;;;;2.75;1.90;;;;;;;32.60;27.84;96569.81;5037651;28;20206;-71
2022/07/19 10:42:17;;;;;;;3.00;1.65;;;;;;;32.75;30.44;96553.91;4975361;28;20222;-70
2022/07/19 10:45:10;;;;;;;3.83;1.77;;;;;;;32.80;28.49;96564.72;4974402;28;20282;-70
2022/07/19 10:48:02;;;;;;;3.67;1.77;;;;;;;32.91;26.93;96560.59;5019285;28;20209;-70
2022/07/19 10:50:57;;;;;;;2.58;1.67;;;;;;;33.05;25.50;96552.41;5040066;28;20216;-71
2022/07/19 10:54:03;;;;;;;3.58;1.80;;;;;;;33.21;26.63;96561.81;5041610;28;20203;-71
2022/07/19 10:56:42;;;;;;;2.58;1.70;;;;;;;33.00;24.30;96553.28;5041494;28;20209;-73
2022/07/19 10:59:11;;;;;;;2.95;1.70;;;;;;;32.96;24.81;96554.22;5041716;28;20201;-73
2022/07/19 11:01:54;;;;;;;3.67;1.52;;;;;;;33.22;25.62;96550.56;5040783;28;20224;-71
2022/07/19 11:04:32;;;;;;;4.75;1.48;;;;;;;33.89;24.56;96546.63;5039225;28;20213;-72
2022/07/19 11:07:16;;;;;;;5.53;1.73;;;;;;;34.12;24.47;96547.06;5040975;28;20220;-70
2022/07/19 11:09:44;;;;;;;5.40;1.67;;;;;;;33.94;24.04;96551.94;5039869;28;20205;-72
2022/07/19 11:12:27;;;;;;;2.70;1.73;;;;;;;34.29;23.65;96544.38;5039409;28;20217;-70
2022/07/19 11:14:55;;;;;;;2.92;1.70;;;;;;;34.02;25.03;96532.06;5038917;28;20225;-71
2022/07/19 11:17:21;;;;;;;4.57;1.60;;;;;;;34.21;25.32;96536.13;5038334;28;20220;-70
2022/07/19 11:20:01;;;;;;;2.38;1.50;;;;;;;34.47;26.58;96543.28;5039911;28;20201;-70
2022/07/19 11:22:32;;;;;;;3.30;1.50;;;;;;;34.29;26.16;96533.44;5039111;28;20208;-71
2022/07/19 11:24:59;;;;;;;5.75;1.83;;;;;;;34.10;24.99;96529.34;5039441;28;20208;-70
2022/07/19 11:27:27;;;;;;;4.35;1.63;;;;;;;34.09;25.72;96533.22;5039782;28;20202;-70
2022/07/19 11:29:54;;;;;;;4.57;1.40;;;;;;;33.71;24.56;96526.59;5039189;28;20215;-70
2022/07/19 11:32:21;;;;;;;2.22;1.33;;;;;;;33.53;25.54;96524.91;5038482;28;21290;-70
2022/07/19 11:34:54;;;;;;;4.32;1.60;;;;;;;33.61;25.69;96521.41;5040565;28;20236;-70
2022/07/19 11:37:24;;;;;;;2.67;1.48;;;;;;;33.74;25.36;96519.69;5039001;28;20216;-70
2022/07/19 11:39:51;;;;;;;2.97;1.30;;;;;;;33.71;25.44;96514.88;5038790;28;20643;-70
2022/07/19 11:42:29;;;;;;;2.42;1.50;;;;;;;33.72;25.17;96511.81;5039658;28;20221;-72